Time;durP1;ratioP1;P1;durP2;ratioP2;P2;SDS_P1;SDS_P2;PMS_P1;PMS_P2;Temp;Humidity;BMP_temperature;BMP_pressure;BME280_temperature;BME280_humidity;BME280_pressure;Samples;Min_cycle;Max_cycle;Signal;HPM_P1;HPM_P2
2023/09/12 00:01:27;;;;;;;8.68;5.93;;;;;;;;;;5038968;28;20239;-86
2023/09/12 00:03:55;;;;;;;7.70;6.05;;;;;;;;;;5018190;28;20215;-86
2023/09/12 00:06:21;;;;;;;15.80;6.28;;;;;;;;;;5017990;28;20224;-86
2023/09/12 00:08:52;;;;;;;6.90;5.97;;;;;;;;;;5072475;28;20213;-86
2023/09/12 00:11:18;;;;;;;10.50;7.90;;;;;;;;;;5049196;28;20220;-86
2023/09/12 00:13:44;;;;;;;9.13;7.63;;;;;;;;;;5026687;28;20635;-86
2023/09/12 00:16:10;;;;;;;9.60;7.65;;;;;;;;;;5074635;28;20265;-86
2023/09/12 00:18:38;;;;;;;8.63;7.32;;;;;;;;;;5059721;28;20596;-87
2023/09/12 00:21:04;;;;;;;9.73;7.90;;;;;;;;;;5050153;28;20223;-87
2023/09/12 00:23:31;;;;;;;12.00;8.13;;;;;;;;;;5064109;28;20249;-88
2023/09/12 00:25:59;;;;;;;9.63;8.52;;;;;;;;;;5053571;28;20269;-85
2023/09/12 00:28:25;;;;;;;13.32;9.93;;;;;;;;;;5033783;28;20216;-89
2023/09/12 00:30:53;;;;;;;9.57;8.68;;;;;;;;;;5020908;28;20215;-87
2023/09/12 00:33:19;;;;;;;10.77;9.68;;;;;;;;;;5017410;28;20267;-87
2023/09/12 00:35:44;;;;;;;13.18;9.98;;;;;;;;;;5051094;28;20232;-87
2023/09/12 00:38:10;;;;;;;11.07;9.52;;;;;;;;;;5056123;28;20249;-87
2023/09/12 00:40:37;;;;;;;12.55;10.80;;;;;;;;;;5051627;28;20212;-89
2023/09/12 00:43:03;;;;;;;12.15;10.55;;;;;;;;;;5049534;28;20228;-89
2023/09/12 00:45:28;;;;;;;15.05;11.07;;;;;;;;;;5023165;28;20222;-85
2023/09/12 00:47:57;;;;;;;12.60;11.23;;;;;;;;;;5039625;28;20227;-87
2023/09/12 00:50:23;;;;;;;14.68;13.30;;;;;;;;;;5055026;28;20600;-90
2023/09/12 00:52:49;;;;;;;15.40;12.20;;;;;;;;;;5060971;28;20306;-86
2023/09/12 00:55:14;;;;;;;14.38;12.88;;;;;;;;;;5040092;28;20304;-87
2023/09/12 00:57:44;;;;;;;18.80;14.07;;;;;;;;;;5042490;28;20226;-86
2023/09/12 01:00:12;;;;;;;16.70;13.68;;;;;;;;;;5033900;28;20224;-86
2023/09/12 01:02:41;;;;;;;15.80;13.70;;;;;;;;;;5036629;28;20222;-87
2023/09/12 01:05:10;;;;;;;16.58;14.52;;;;;;;;;;5052758;28;20237;-88
2023/09/12 01:07:36;;;;;;;15.38;13.85;;;;;;;;;;5052453;28;20222;-85
2023/09/12 01:10:02;;;;;;;16.63;14.88;;;;;;;;;;5024569;28;20585;-89
2023/09/12 01:12:29;;;;;;;17.75;15.82;;;;;;;;;;5067478;28;20248;-88
2023/09/12 01:14:54;;;;;;;18.75;16.90;;;;;;;;;;5034547;28;20330;-87
2023/09/12 01:17:20;;;;;;;20.60;18.65;;;;;;;;;;5049349;28;20323;-89
2023/09/12 01:19:48;;;;;;;20.02;17.95;;;;;;;;;;5071020;28;20211;-87
2023/09/12 01:22:19;;;;;;;19.20;17.25;;;;;;;;;;5034467;28;20226;-87
2023/09/12 01:24:48;;;;;;;19.33;17.35;;;;;;;;;;5063935;28;20309;-87
2023/09/12 01:27:16;;;;;;;20.73;17.48;;;;;;;;;;5053654;28;20245;-87
2023/09/12 01:29:43;;;;;;;20.55;18.52;;;;;;;;;;5040092;28;20247;-87
2023/09/12 01:32:13;;;;;;;26.73;19.30;;;;;;;;;;5047801;28;20212;-87
2023/09/12 01:34:41;;;;;;;22.52;20.38;;;;;;;;;;5035090;28;20215;-86
2023/09/12 01:37:06;;;;;;;23.23;21.10;;;;;;;;;;5024857;28;20220;-87
2023/09/12 01:39:32;;;;;;;25.60;23.00;;;;;;;;;;5034034;28;20237;-87
2023/09/12 01:41:58;;;;;;;19.98;18.27;;;;;;;;;;5051026;28;20925;-89
2023/09/12 01:44:27;;;;;;;20.27;18.33;;;;;;;;;;5054137;28;20225;-89
2023/09/12 01:46:53;;;;;;;23.42;20.83;;;;;;;;;;5023583;28;20231;-89
2023/09/12 01:49:19;;;;;;;22.80;20.50;;;;;;;;;;5052627;28;20606;-89
2023/09/12 01:51:45;;;;;;;24.25;21.95;;;;;;;;;;5018272;28;20223;-89
2023/09/12 01:54:13;;;;;;;25.20;22.77;;;;;;;;;;5035767;28;20277;-89
2023/09/12 01:56:38;;;;;;;26.02;23.48;;;;;;;;;;5048003;28;20196;-91
2023/09/12 01:59:04;;;;;;;24.15;21.95;;;;;;;;;;5041097;28;20230;-89
2023/09/12 02:01:30;;;;;;;25.75;23.05;;;;;;;;;;5039067;28;20569;-89
2023/09/12 02:03:56;;;;;;;25.17;22.67;;;;;;;;;;5054243;28;20233;-90
2023/09/12 02:06:24;;;;;;;24.65;22.25;;;;;;;;;;5044327;28;20212;-89
2023/09/12 02:08:52;;;;;;;25.55;23.05;;;;;;;;;;5020447;28;20381;-89
2023/09/12 02:11:18;;;;;;;27.15;24.55;;;;;;;;;;5053005;28;20214;-90
2023/09/12 02:13:45;;;;;;;27.20;24.48;;;;;;;;;;5052574;28;20220;-90
2023/09/12 02:16:10;;;;;;;30.27;26.88;;;;;;;;;;5043653;28;20560;-89
2023/09/12 02:18:36;;;;;;;30.45;27.40;;;;;;;;;;5047734;28;20664;-89
2023/09/12 02:21:01;;;;;;;30.77;27.67;;;;;;;;;;5041873;28;20207;-91
2023/09/12 02:23:27;;;;;;;33.50;30.10;;;;;;;;;;5059559;28;20296;-88
2023/09/12 02:25:53;;;;;;;31.70;28.73;;;;;;;;;;5073969;28;20215;-87
2023/09/12 02:28:18;;;;;;;33.55;30.13;;;;;;;;;;5058564;28;20220;-90
2023/09/12 02:30:44;;;;;;;32.67;29.42;;;;;;;;;;5028337;28;20290;-89
2023/09/12 02:33:10;;;;;;;32.47;29.02;;;;;;;;;;5060100;28;20211;-87
2023/09/12 02:35:38;;;;;;;32.20;29.08;;;;;;;;;;5043496;28;20591;-87
2023/09/12 02:38:03;;;;;;;32.70;29.40;;;;;;;;;;5051079;28;20597;-87
2023/09/12 02:40:29;;;;;;;34.00;30.60;;;;;;;;;;5049523;28;20230;-87
2023/09/12 02:42:54;;;;;;;34.22;30.58;;;;;;;;;;5046177;28;20273;-87
2023/09/12 02:45:22;;;;;;;35.95;32.45;;;;;;;;;;5053870;28;20211;-88
2023/09/12 02:47:48;;;;;;;35.05;31.48;;;;;;;;;;5018861;28;20230;-86
2023/09/12 02:50:16;;;;;;;37.33;33.72;;;;;;;;;;5052968;28;20212;-87
2023/09/12 02:52:42;;;;;;;38.28;34.80;;;;;;;;;;5042484;28;20223;-87
2023/09/12 02:55:08;;;;;;;36.50;32.75;;;;;;;;;;5046571;28;20211;-87
2023/09/12 02:57:36;;;;;;;38.92;35.25;;;;;;;;;;5029677;28;20219;-86
2023/09/12 03:00:02;;;;;;;39.25;35.35;;;;;;;;;;5040947;28;20212;-88
2023/09/12 03:02:30;;;;;;;41.28;36.78;;;;;;;;;;5067661;28;20233;-86
2023/09/12 03:04:56;;;;;;;36.13;32.65;;;;;;;;;;5043362;28;20676;-87
2023/09/12 03:07:21;;;;;;;39.60;35.80;;;;;;;;;;5061180;28;20225;-87
2023/09/12 03:09:50;;;;;;;40.47;36.53;;;;;;;;;;5054565;28;20797;-86
2023/09/12 03:12:16;;;;;;;40.78;36.53;;;;;;;;;;5056433;28;20222;-86
2023/09/12 03:14:44;;;;;;;44.13;39.67;;;;;;;;;;5017798;28;20215;-86
2023/09/12 03:17:14;;;;;;;40.53;36.42;;;;;;;;;;5034899;28;20212;-87
2023/09/12 03:19:39;;;;;;;43.88;39.35;;;;;;;;;;5054526;28;20285;-87
2023/09/12 03:22:05;;;;;;;42.85;38.33;;;;;;;;;;5033078;28;20736;-88
2023/09/12 03:24:31;;;;;;;44.55;39.92;;;;;;;;;;5045952;28;20245;-89
2023/09/12 03:26:56;;;;;;;42.53;38.15;;;;;;;;;;5035365;28;20207;-89
2023/09/12 03:29:22;;;;;;;44.42;39.88;;;;;;;;;;5052771;28;20951;-87
2023/09/12 03:31:48;;;;;;;45.35;40.55;;;;;;;;;;5058470;28;20249;-88
2023/09/12 03:34:14;;;;;;;44.90;40.28;;;;;;;;;;5070154;28;20723;-87
2023/09/12 03:36:42;;;;;;;44.58;39.80;;;;;;;;;;5056574;28;20210;-87
2023/09/12 03:39:08;;;;;;;43.63;39.22;;;;;;;;;;5048947;28;20578;-84
2023/09/12 03:41:37;;;;;;;47.25;42.17;;;;;;;;;;5061731;28;20210;-86
2023/09/12 03:44:06;;;;;;;46.70;41.92;;;;;;;;;;5085437;28;20218;-86
2023/09/12 03:46:34;;;;;;;61.65;46.97;;;;;;;;;;5053844;28;20212;-86
2023/09/12 03:49:03;;;;;;;52.63;44.63;;;;;;;;;;5055944;28;20245;-87
2023/09/12 03:51:29;;;;;;;51.33;45.75;;;;;;;;;;5056231;28;20223;-87
2023/09/12 03:53:54;;;;;;;52.60;47.05;;;;;;;;;;5070778;28;20219;-87
2023/09/12 03:56:20;;;;;;;60.00;48.97;;;;;;;;;;5062204;28;20227;-86
2023/09/12 03:58:46;;;;;;;59.90;49.72;;;;;;;;;;5062623;28;20222;-87
2023/09/12 04:04:59;;;;;;;62.03;52.90;;;;;;;;;;5072616;28;20275;-87
2023/09/12 04:07:25;;;;;;;65.70;53.33;;;;;;;;;;5054752;28;20265;-86
2023/09/12 04:09:51;;;;;;;65.22;54.65;;;;;;;;;;5044774;28;20294;-88
2023/09/12 04:12:17;;;;;;;65.50;55.35;;;;;;;;;;5051662;28;20219;-86
2023/09/12 04:14:45;;;;;;;70.13;56.88;;;;;;;;;;5033779;28;20227;-88
2023/09/12 04:17:11;;;;;;;64.72;56.45;;;;;;;;;;5046968;28;20596;-90
2023/09/12 04:19:37;;;;;;;66.25;56.70;;;;;;;;;;5059042;28;20223;-89
2023/09/12 04:22:05;;;;;;;64.82;54.92;;;;;;;;;;5037493;28;20297;-86
2023/09/12 04:24:37;;;;;;;75.90;58.20;;;;;;;;;;5061039;28;20598;-87
2023/09/12 04:27:03;;;;;;;72.78;55.72;;;;;;;;;;5065380;28;20546;-87
2023/09/12 04:29:29;;;;;;;76.43;57.55;;;;;;;;;;5046928;28;20298;-86
2023/09/12 04:31:59;;;;;;;70.38;58.63;;;;;;;;;;5053417;28;20221;-87
2023/09/12 04:34:28;;;;;;;78.88;59.05;;;;;;;;;;5057681;28;20597;-86
2023/09/12 04:36:53;;;;;;;74.28;57.53;;;;;;;;;;5056502;28;20214;-85
2023/09/12 04:39:20;;;;;;;86.07;62.55;;;;;;;;;;5037046;28;20244;-85
2023/09/12 04:41:46;;;;;;;81.75;61.58;;;;;;;;;;5054738;28;20285;-85
2023/09/12 04:44:16;;;;;;;75.13;57.10;;;;;;;;;;5055917;28;20215;-85
2023/09/12 04:46:44;;;;;;;81.72;60.97;;;;;;;;;;5049861;28;20222;-86
2023/09/12 04:49:13;;;;;;;76.45;58.50;;;;;;;;;;5039890;28;20246;-85
2023/09/12 04:51:38;;;;;;;80.47;58.22;;;;;;;;;;5041567;28;20265;-85
2023/09/12 04:54:07;;;;;;;76.00;58.35;;;;;;;;;;5065086;28;20211;-85
2023/09/12 04:56:33;;;;;;;78.35;60.08;;;;;;;;;;5027555;28;20285;-86
2023/09/12 04:58:58;;;;;;;78.63;58.55;;;;;;;;;;5055922;28;20211;-85
2023/09/12 05:01:28;;;;;;;92.18;62.00;;;;;;;;;;5042707;28;20215;-83
2023/09/12 05:03:54;;;;;;;78.43;59.67;;;;;;;;;;5060955;28;20214;-84
2023/09/12 05:06:20;;;;;;;76.28;57.97;;;;;;;;;;5068291;28;20607;-84
2023/09/12 05:08:46;;;;;;;77.68;59.90;;;;;;;;;;5049901;28;20944;-85
2023/09/12 05:11:15;;;;;;;88.07;60.17;;;;;;;;;;5060518;28;20202;-84
2023/09/12 05:13:41;;;;;;;74.63;57.13;;;;;;;;;;5038972;28;20334;-84
2023/09/12 05:16:06;;;;;;;85.35;58.38;;;;;;;;;;5049875;28;20345;-86
2023/09/12 05:18:34;;;;;;;83.20;57.80;;;;;;;;;;5041307;28;20226;-85
2023/09/12 05:21:00;;;;;;;65.60;55.42;;;;;;;;;;5047917;28;20207;-87
2023/09/12 05:23:25;;;;;;;78.70;58.28;;;;;;;;;;5068708;28;20233;-86
2023/09/12 05:25:53;;;;;;;68.10;55.00;;;;;;;;;;5045878;28;20336;-85
2023/09/12 05:28:19;;;;;;;74.80;53.78;;;;;;;;;;5023427;28;20225;-86
2023/09/12 05:30:47;;;;;;;81.35;55.35;;;;;;;;;;5030103;28;20250;-86
2023/09/12 05:33:16;;;;;;;70.78;54.63;;;;;;;;;;5049435;28;20436;-83
2023/09/12 05:35:41;;;;;;;67.88;53.70;;;;;;;;;;5055761;28;20218;-81
2023/09/12 05:38:10;;;;;;;65.90;54.30;;;;;;;;;;5012565;28;20601;-78
2023/09/12 05:40:36;;;;;;;61.75;53.67;;;;;;;;;;5024039;28;20285;-80
2023/09/12 05:43:01;;;;;;;71.47;55.35;;;;;;;;;;5068392;28;20707;-80
2023/09/12 05:45:32;;;;;;;65.78;53.67;;;;;;;;;;5025957;28;20215;-77
2023/09/12 05:47:59;;;;;;;70.38;53.17;;;;;;;;;;5036737;28;20230;-80
2023/09/12 05:50:24;;;;;;;72.78;54.80;;;;;;;;;;5032965;28;20215;-79
2023/09/12 05:52:50;;;;;;;62.97;51.85;;;;;;;;;;5040374;28;20222;-77
2023/09/12 05:55:17;;;;;;;62.42;49.63;;;;;;;;;;5050157;28;20223;-77
2023/09/12 05:57:43;;;;;;;62.25;50.25;;;;;;;;;;5063988;28;20709;-78
2023/09/12 06:00:18;;;;;;;63.15;51.42;;;;;;;;;;5040601;28;20216;-78
2023/09/12 06:02:48;;;;;;;62.42;49.95;;;;;;;;;;5045409;28;20240;-79
2023/09/12 06:05:16;;;;;;;58.40;50.38;;;;;;;;;;5042849;28;20224;-77
2023/09/12 06:07:46;;;;;;;62.58;51.22;;;;;;;;;;5066102;28;20226;-76
2023/09/12 06:10:14;;;;;;;55.28;48.80;;;;;;;;;;5061477;28;20219;-78
2023/09/12 06:12:39;;;;;;;55.60;49.25;;;;;;;;;;4996912;28;20216;-78
2023/09/12 06:15:08;;;;;;;53.67;47.83;;;;;;;;;;5066494;28;20234;-78
2023/09/12 06:17:36;;;;;;;54.25;48.00;;;;;;;;;;5051203;28;20221;-78
2023/09/12 06:20:06;;;;;;;55.55;48.95;;;;;;;;;;5042965;28;20343;-78
2023/09/12 06:22:31;;;;;;;55.03;48.58;;;;;;;;;;5051952;28;20876;-80
2023/09/12 06:24:57;;;;;;;55.22;49.15;;;;;;;;;;5053522;28;20219;-77
2023/09/12 06:27:22;;;;;;;59.72;50.70;;;;;;;;;;5044375;28;20748;-79
2023/09/12 06:29:50;;;;;;;58.88;50.58;;;;;;;;;;5056994;28;20212;-78
2023/09/12 06:32:17;;;;;;;63.30;52.72;;;;;;;;;;5040991;28;20288;-79
2023/09/12 06:34:45;;;;;;;68.07;54.03;;;;;;;;;;5053646;28;20745;-78
2023/09/12 06:37:22;;;;;;;63.65;54.35;;;;;;;;;;5053529;28;20238;-79
2023/09/12 06:39:53;;;;;;;66.85;53.78;;;;;;;;;;5048895;28;20218;-78
2023/09/12 06:42:18;;;;;;;67.72;54.95;;;;;;;;;;5043361;28;20223;-80
2023/09/12 06:44:45;;;;;;;68.03;53.67;;;;;;;;;;5060266;28;20217;-77
2023/09/12 06:47:11;;;;;;;60.30;50.50;;;;;;;;;;5080279;28;20207;-78
2023/09/12 06:49:39;;;;;;;75.18;55.22;;;;;;;;;;5048207;28;20225;-78
2023/09/12 06:52:19;;;;;;;66.88;52.92;;;;;;;;;;5043049;28;20210;-77
2023/09/12 06:54:45;;;;;;;62.38;50.88;;;;;;;;;;5081464;28;20218;-78
2023/09/12 06:57:14;;;;;;;62.78;49.47;;;;;;;;;;5059929;28;20219;-77
2023/09/12 06:59:43;;;;;;;54.97;48.75;;;;;;;;;;5018761;28;20264;-78
2023/09/12 07:02:11;;;;;;;57.72;46.22;;;;;;;;;;5037381;28;20222;-79
2023/09/12 07:04:39;;;;;;;51.30;41.72;;;;;;;;;;5042363;28;20322;-78
2023/09/12 07:07:07;;;;;;;49.10;42.08;;;;;;;;;;5046744;28;20216;-79
2023/09/12 07:09:35;;;;;;;54.45;44.08;;;;;;;;;;5057497;28;20226;-78
2023/09/12 07:12:00;;;;;;;48.13;43.05;;;;;;;;;;5026346;28;20224;-78
2023/09/12 07:14:26;;;;;;;46.08;41.28;;;;;;;;;;5049404;28;20221;-77
2023/09/12 07:16:52;;;;;;;51.97;44.40;;;;;;;;;;5059617;28;20212;-79
2023/09/12 07:19:19;;;;;;;55.85;45.00;;;;;;;;;;5057880;28;20219;-78
2023/09/12 07:21:45;;;;;;;46.25;41.58;;;;;;;;;;5072791;28;20206;-78
2023/09/12 07:24:13;;;;;;;45.42;40.85;;;;;;;;;;5047424;28;20222;-79
2023/09/12 07:26:39;;;;;;;45.33;40.65;;;;;;;;;;5057660;28;20215;-78
2023/09/12 07:29:05;;;;;;;46.85;41.30;;;;;;;;;;5056446;28;20580;-80
2023/09/12 07:31:31;;;;;;;44.17;39.65;;;;;;;;;;5071454;28;20268;-80
2023/09/12 07:34:02;;;;;;;46.60;39.90;;;;;;;;;;5068599;28;20223;-79
2023/09/12 07:36:27;;;;;;;43.30;38.70;;;;;;;;;;5052408;28;20249;-77
2023/09/12 07:38:53;;;;;;;41.38;37.30;;;;;;;;;;5067956;28;20226;-78
2023/09/12 07:41:21;;;;;;;39.80;35.78;;;;;;;;;;5079899;28;20218;-78
2023/09/12 07:43:46;;;;;;;38.88;35.17;;;;;;;;;;5051036;28;20216;-80
2023/09/12 07:46:12;;;;;;;41.47;37.22;;;;;;;;;;5085396;28;20607;-78
2023/09/12 07:48:37;;;;;;;41.80;37.50;;;;;;;;;;5047568;28;20704;-78
2023/09/12 07:51:11;;;;;;;42.50;38.22;;;;;;;;;;5083341;22;20229;-75
2023/09/12 07:53:40;;;;;;;41.40;37.20;;;;;;;;;;5014887;28;20211;-73
2023/09/12 07:56:11;;;;;;;43.40;39.20;;;;;;;;;;5069473;28;20217;-73
2023/09/12 07:58:36;;;;;;;42.88;38.20;;;;;;;;;;5027412;28;20241;-74
2023/09/12 08:01:12;;;;;;;46.90;38.30;;;;;;;;;;5048086;28;20222;-73
2023/09/12 08:03:41;;;;;;;43.38;39.00;;;;;;;;;;5025015;28;20230;-74
2023/09/12 08:06:08;;;;;;;42.03;37.92;;;;;;;;;;5057441;28;20238;-74
2023/09/12 08:08:36;;;;;;;41.92;37.60;;;;;;;;;;5063107;28;20238;-74
2023/09/12 08:11:02;;;;;;;40.00;36.03;;;;;;;;;;5050444;28;20230;-73
2023/09/12 08:13:30;;;;;;;40.55;36.45;;;;;;;;;;5042029;28;20220;-73
2023/09/12 08:15:56;;;;;;;38.97;35.03;;;;;;;;;;5046890;28;20219;-73
2023/09/12 08:18:21;;;;;;;39.05;35.00;;;;;;;;;;5035925;28;20207;-73
2023/09/12 08:20:47;;;;;;;34.88;31.40;;;;;;;;;;5024854;28;20265;-74
2023/09/12 08:23:13;;;;;;;31.75;28.63;;;;;;;;;;5028483;28;20633;-74
2023/09/12 08:25:39;;;;;;;30.90;28.08;;;;;;;;;;5052258;28;20245;-74
2023/09/12 08:28:08;;;;;;;30.25;27.05;;;;;;;;;;5045142;28;20263;-74
2023/09/12 08:30:33;;;;;;;28.50;25.90;;;;;;;;;;5061576;28;20224;-74
2023/09/12 08:32:59;;;;;;;28.85;26.08;;;;;;;;;;5050597;28;20261;-73
2023/09/12 08:35:31;;;;;;;27.40;24.90;;;;;;;;;;5060470;28;20215;-74
2023/09/12 08:38:01;;;;;;;24.27;22.17;;;;;;;;;;5030954;28;20204;-74
2023/09/12 08:40:30;;;;;;;21.75;19.77;;;;;;;;;;5034238;28;20224;-73
2023/09/12 08:42:55;;;;;;;21.63;19.52;;;;;;;;;;5037176;28;20227;-75
2023/09/12 08:45:24;;;;;;;21.63;19.80;;;;;;;;;;5046979;28;20614;-73
2023/09/12 08:47:55;;;;;;;18.83;17.23;;;;;;;;;;5035354;28;20207;-73
2023/09/12 08:50:23;;;;;;;17.13;15.65;;;;;;;;;;5043900;28;20220;-74
2023/09/12 08:52:48;;;;;;;15.73;14.43;;;;;;;;;;5032947;28;20585;-72
2023/09/12 08:55:14;;;;;;;14.55;13.10;;;;;;;;;;5065537;28;20302;-72
2023/09/12 08:57:50;;;;;;;13.13;11.93;;;;;;;;;;5060257;28;20273;-75
2023/09/12 09:00:18;;;;;;;13.82;12.50;;;;;;;;;;5045774;28;20222;-72
2023/09/12 09:02:47;;;;;;;12.00;11.00;;;;;;;;;;5043139;28;20695;-73
2023/09/12 09:05:14;;;;;;;12.88;11.68;;;;;;;;;;5043768;28;20231;-74
2023/09/12 09:07:43;;;;;;;13.20;12.10;;;;;;;;;;5033109;28;20268;-74
2023/09/12 09:10:15;;;;;;;12.52;11.63;;;;;;;;;;5045195;28;20767;-74
2023/09/12 09:12:44;;;;;;;13.43;12.40;;;;;;;;;;5033010;28;20392;-73
2023/09/12 09:15:28;;;;;;;11.77;10.82;;;;;;;;;;5031671;28;20289;-74
2023/09/12 09:17:57;;;;;;;11.98;11.05;;;;;;;;;;5025561;28;20210;-73
2023/09/12 09:20:30;;;;;;;12.63;11.50;;;;;;;;;;5043550;28;20226;-73
2023/09/12 09:23:07;;;;;;;12.30;11.00;;;;;;;;;;5065823;28;20288;-73
2023/09/12 09:25:45;;;;;;;13.10;11.95;;;;;;;;;;5010418;28;20215;-73
2023/09/12 09:28:20;;;;;;;12.25;11.15;;;;;;;;;;5042929;28;20218;-72
2023/09/12 09:30:54;;;;;;;12.25;11.05;;;;;;;;;;5047285;28;20211;-73
2023/09/12 09:33:22;;;;;;;13.18;11.95;;;;;;;;;;5055688;28;20241;-73
2023/09/12 09:35:48;;;;;;;12.75;11.63;;;;;;;;;;5042730;28;20227;-72
2023/09/12 09:38:18;;;;;;;13.23;12.13;;;;;;;;;;5065220;28;20294;-73
2023/09/12 09:40:50;;;;;;;14.10;12.80;;;;;;;;;;5032008;28;20305;-73
2023/09/12 09:43:22;;;;;;;14.05;12.85;;;;;;;;;;5054855;28;20234;-72
2023/09/12 09:45:47;;;;;;;15.57;14.15;;;;;;;;;;5042863;28;20265;-74
2023/09/12 09:48:26;;;;;;;15.95;14.55;;;;;;;;;;5042111;28;20230;-74
2023/09/12 09:51:04;;;;;;;15.60;14.20;;;;;;;;;;5040522;28;20535;-74
2023/09/12 09:53:34;;;;;;;16.08;14.68;;;;;;;;;;5057911;28;20243;-74
2023/09/12 09:56:15;;;;;;;15.82;14.63;;;;;;;;;;5046694;28;20715;-73
2023/09/12 09:58:56;;;;;;;15.98;14.68;;;;;;;;;;5049106;28;20223;-74
2023/09/12 10:01:21;;;;;;;17.95;16.35;;;;;;;;;;5040769;28;20691;-73
2023/09/12 10:03:50;;;;;;;16.90;15.30;;;;;;;;;;5060786;28;20227;-74
2023/09/12 10:06:17;;;;;;;16.77;15.38;;;;;;;;;;5038172;28;20215;-74
2023/09/12 10:08:50;;;;;;;20.13;16.15;;;;;;;;;;5055234;28;20394;-74
2023/09/12 10:11:18;;;;;;;17.38;14.82;;;;;;;;;;5036671;28;20223;-74
2023/09/12 10:13:49;;;;;;;17.83;16.23;;;;;;;;;;5039622;28;20305;-74
2023/09/12 10:16:18;;;;;;;18.00;16.50;;;;;;;;;;5044902;28;20226;-74
2023/09/12 10:19:06;;;;;;;18.02;16.63;;;;;;;;;;5015616;28;20654;-75
2023/09/12 10:21:40;;;;;;;17.15;15.63;;;;;;;;;;5047213;28;20592;-74
2023/09/12 10:24:06;;;;;;;18.90;17.10;;;;;;;;;;5026752;28;20723;-75
2023/09/12 10:26:31;;;;;;;18.95;17.25;;;;;;;;;;5047607;28;20341;-74
2023/09/12 10:28:57;;;;;;;18.85;16.90;;;;;;;;;;5020231;28;20223;-74
2023/09/12 10:31:24;;;;;;;18.65;16.95;;;;;;;;;;5031703;28;20215;-75
2023/09/12 10:33:52;;;;;;;18.63;16.70;;;;;;;;;;5039432;28;20223;-74
2023/09/12 10:36:22;;;;;;;19.77;18.10;;;;;;;;;;5035355;28;20215;-74
2023/09/12 10:38:51;;;;;;;19.10;17.30;;;;;;;;;;5025703;28;20218;-75
2023/09/12 10:41:16;;;;;;;20.58;18.80;;;;;;;;;;5030727;28;20226;-75
2023/09/12 10:43:43;;;;;;;21.45;19.33;;;;;;;;;;5026045;28;20227;-75
2023/09/12 10:46:09;;;;;;;22.30;20.15;;;;;;;;;;5053564;28;20214;-76
2023/09/12 10:48:42;;;;;;;20.75;18.98;;;;;;;;;;5012332;28;20231;-75
2023/09/12 10:51:13;;;;;;;22.48;20.40;;;;;;;;;;5027278;28;20215;-75
2023/09/12 10:53:48;;;;;;;22.63;20.63;;;;;;;;;;5065205;28;20235;-75
2023/09/12 10:56:17;;;;;;;24.38;21.50;;;;;;;;;;5041512;28;20269;-76
2023/09/12 10:59:04;;;;;;;24.17;21.55;;;;;;;;;;5063849;28;20633;-76
2023/09/12 11:01:33;;;;;;;22.38;20.38;;;;;;;;;;5055886;28;20227;-75
2023/09/12 11:04:01;;;;;;;22.63;20.77;;;;;;;;;;5030176;28;20708;-76
2023/09/12 11:06:31;;;;;;;24.63;21.33;;;;;;;;;;5063431;28;20660;-75
2023/09/12 11:09:22;;;;;;;22.60;20.40;;;;;;;;;;5040576;28;20219;-76
2023/09/12 11:11:51;;;;;;;22.40;20.40;;;;;;;;;;5029234;28;20263;-75
2023/09/12 11:14:19;;;;;;;21.05;19.23;;;;;;;;;;5031425;28;20588;-76
2023/09/12 11:17:07;;;;;;;22.73;20.45;;;;;;;;;;5023940;28;20280;-75
2023/09/12 11:19:49;;;;;;;23.50;21.20;;;;;;;;;;5044829;28;20606;-76
2023/09/12 11:22:28;;;;;;;23.83;21.75;;;;;;;;;;5041884;28;20712;-74
2023/09/12 11:24:58;;;;;;;22.50;20.58;;;;;;;;;;5042356;28;20650;-75
2023/09/12 11:27:25;;;;;;;23.73;21.40;;;;;;;;;;5040803;28;20256;-74
2023/09/12 11:29:55;;;;;;;22.83;20.85;;;;;;;;;;5032932;28;20242;-74
2023/09/12 11:32:37;;;;;;;23.55;21.33;;;;;;;;;;5038830;28;21006;-75
2023/09/12 11:35:08;;;;;;;23.88;21.63;;;;;;;;;;5029294;28;20210;-75
2023/09/12 11:37:36;;;;;;;23.75;21.48;;;;;;;;;;5060393;28;20227;-75
2023/09/12 11:40:06;;;;;;;23.40;20.73;;;;;;;;;;5030420;28;20218;-75
2023/09/12 11:42:31;;;;;;;22.08;20.27;;;;;;;;;;5030742;28;20308;-74
2023/09/12 11:45:04;;;;;;;20.45;18.58;;;;;;;;;;5033738;28;20210;-74
2023/09/12 11:47:33;;;;;;;21.40;19.35;;;;;;;;;;5041332;28;20230;-75
2023/09/12 11:49:59;;;;;;;20.27;18.45;;;;;;;;;;5042021;28;20261;-74
2023/09/12 11:52:27;;;;;;;20.58;18.60;;;;;;;;;;5048046;28;20226;-75
2023/09/12 11:54:55;;;;;;;19.08;17.40;;;;;;;;;;5049470;28;20767;-74
2023/09/12 11:57:23;;;;;;;18.98;17.42;;;;;;;;;;5064383;28;20225;-74
2023/09/12 11:59:52;;;;;;;20.02;18.27;;;;;;;;;;5042290;28;20271;-74
2023/09/12 12:02:19;;;;;;;21.55;19.50;;;;;;;;;;5044953;28;20219;-75
2023/09/12 12:04:45;;;;;;;20.48;18.48;;;;;;;;;;5049266;28;20513;-75
2023/09/12 12:07:13;;;;;;;21.15;19.45;;;;;;;;;;5030478;28;20210;-74
2023/09/12 12:09:41;;;;;;;20.52;18.80;;;;;;;;;;5060187;28;20583;-75
2023/09/12 12:12:13;;;;;;;20.92;18.92;;;;;;;;;;5025119;28;20301;-75
2023/09/12 12:14:40;;;;;;;19.63;17.92;;;;;;;;;;5059429;28;20361;-74
2023/09/12 12:17:08;;;;;;;20.98;19.17;;;;;;;;;;5033408;28;20213;-75
2023/09/12 12:19:36;;;;;;;21.60;19.45;;;;;;;;;;5045200;28;20219;-74
2023/09/12 12:22:05;;;;;;;21.85;19.55;;;;;;;;;;5059917;28;20225;-74
2023/09/12 12:24:51;;;;;;;22.02;19.92;;;;;;;;;;5008003;28;20227;-73
2023/09/12 12:27:16;;;;;;;18.30;16.70;;;;;;;;;;5047773;28;20537;-74
2023/09/12 12:29:47;;;;;;;19.20;17.65;;;;;;;;;;5041678;28;20222;-73
2023/09/12 12:32:15;;;;;;;18.45;16.73;;;;;;;;;;5039608;28;20226;-74
2023/09/12 12:34:43;;;;;;;18.42;16.80;;;;;;;;;;5039929;28;20617;-76
2023/09/12 12:37:09;;;;;;;18.35;16.75;;;;;;;;;;5046223;28;20221;-75
2023/09/12 12:39:39;;;;;;;18.33;16.83;;;;;;;;;;5028943;28;20633;-73
2023/09/12 12:42:08;;;;;;;18.17;16.65;;;;;;;;;;5044245;28;20468;-74
2023/09/12 12:44:40;;;;;;;17.88;16.38;;;;;;;;;;5043916;28;20214;-75
2023/09/12 12:47:06;;;;;;;17.33;15.90;;;;;;;;;;5065928;28;20222;-74
2023/09/12 12:49:36;;;;;;;16.33;14.88;;;;;;;;;;5038102;28;20680;-73
2023/09/12 12:52:02;;;;;;;17.95;16.42;;;;;;;;;;5057623;28;20266;-74
2023/09/12 12:54:36;;;;;;;16.95;15.30;;;;;;;;;;5049073;28;20230;-74
2023/09/12 12:57:04;;;;;;;17.00;15.38;;;;;;;;;;5060035;28;20223;-74
2023/09/12 12:59:36;;;;;;;15.20;14.00;;;;;;;;;;5047028;28;20294;-75
2023/09/12 13:02:03;;;;;;;14.93;13.63;;;;;;;;;;5036452;28;21150;-73
2023/09/12 13:04:38;;;;;;;13.95;12.80;;;;;;;;;;5050204;28;20254;-74
2023/09/12 13:07:04;;;;;;;14.63;13.35;;;;;;;;;;5063477;28;20214;-73
2023/09/12 13:09:30;;;;;;;14.48;13.38;;;;;;;;;;5046916;28;20219;-73
2023/09/12 13:11:55;;;;;;;13.90;12.70;;;;;;;;;;5029600;28;20703;-73
2023/09/12 13:14:26;;;;;;;13.80;12.73;;;;;;;;;;5062671;28;20226;-75
2023/09/12 13:16:56;;;;;;;13.35;12.23;;;;;;;;;;5040862;28;20283;-74
2023/09/12 13:19:28;;;;;;;13.02;11.90;;;;;;;;;;5048409;28;20308;-74
2023/09/12 13:21:56;;;;;;;11.02;10.02;;;;;;;;;;5039462;28;20227;-75
2023/09/12 13:24:24;;;;;;;10.13;9.32;;;;;;;;;;5012044;28;20281;-74
2023/09/12 13:26:53;;;;;;;9.25;8.55;;;;;;;;;;5044779;28;20239;-74
2023/09/12 13:29:19;;;;;;;8.70;7.85;;;;;;;;;;5035530;28;20247;-73
2023/09/12 13:31:47;;;;;;;7.75;7.22;;;;;;;;;;5039774;28;20270;-74
2023/09/12 13:34:12;;;;;;;8.55;7.85;;;;;;;;;;5048666;28;20234;-73
2023/09/12 13:36:40;;;;;;;8.52;7.90;;;;;;;;;;5025525;28;20228;-73
2023/09/12 13:39:08;;;;;;;7.75;7.07;;;;;;;;;;5040946;28;20215;-74
2023/09/12 13:41:39;;;;;;;7.53;6.35;;;;;;;;;;5011868;28;20247;-73
2023/09/12 13:44:10;;;;;;;7.13;6.50;;;;;;;;;;5054270;28;20726;-74
2023/09/12 13:46:36;;;;;;;8.52;7.05;;;;;;;;;;5033509;28;20760;-73
2023/09/12 13:49:03;;;;;;;6.47;5.97;;;;;;;;;;5030690;28;20235;-72
2023/09/12 13:51:29;;;;;;;6.53;5.93;;;;;;;;;;5055007;28;20665;-73
2023/09/12 13:53:55;;;;;;;5.50;5.10;;;;;;;;;;5038767;28;20217;-73
2023/09/12 13:56:20;;;;;;;5.75;5.20;;;;;;;;;;5041821;28;20547;-73
2023/09/12 13:58:46;;;;;;;6.38;5.57;;;;;;;;;;5033800;28;20211;-73
2023/09/12 14:01:11;;;;;;;5.88;5.47;;;;;;;;;;5065147;28;20272;-74
2023/09/12 14:03:42;;;;;;;7.13;4.95;;;;;;;;;;5032203;28;20239;-73
2023/09/12 14:06:07;;;;;;;7.13;5.35;;;;;;;;;;5056442;28;20250;-73
2023/09/12 14:08:33;;;;;;;8.55;5.60;;;;;;;;;;5041474;28;20233;-73
2023/09/12 14:11:01;;;;;;;5.22;4.82;;;;;;;;;;5039713;28;20272;-73
2023/09/12 14:13:28;;;;;;;5.40;4.97;;;;;;;;;;5046780;28;20223;-74
2023/09/12 14:15:54;;;;;;;5.05;4.60;;;;;;;;;;5043051;28;20214;-73
2023/09/12 14:18:20;;;;;;;4.00;3.65;;;;;;;;;;5033481;28;20302;-72
2023/09/12 14:20:47;;;;;;;4.40;4.10;;;;;;;;;;5064636;28;20212;-75
2023/09/12 14:23:13;;;;;;;3.88;3.58;;;;;;;;;;5030883;28;20218;-75
2023/09/12 14:25:38;;;;;;;3.95;3.65;;;;;;;;;;5039706;28;20219;-73
2023/09/12 14:28:11;;;;;;;4.05;3.65;;;;;;;;;;5034958;28;20290;-73
2023/09/12 14:30:44;;;;;;;3.53;3.33;;;;;;;;;;5047525;28;20231;-74